South Haven, Michigan
Current Conditions -  °F | °C
As of 1:15 AM on Sunday 26 Oct 2014 (Local Time) from KLWA Reporting Station
Clear Clear  
Wind Chill: 14°   Ceiling: Unl
Heat Index: 14°   Visibility: 10mi
Dew Point:   Wind: 10mph
Humidity: 51%   Direction: 330°NNW
Pressure: 29.92"   Gusts: 17mph
Location:  42.4°N, 86.27°W
Report Text: KLWA 260515Z AUTO 33009G15KT 10SM CLR 14/04 A2992 RMK AO2 T01400041
Loading
Personal Weather Stations






























Interactive Weather Map
Tropical Storm Tracking
New forecast layout! Learn more

10-Day Weather Forecast

Advertisements
Track Severe Weather on mobile